Flood From: 18-02-2018 10:00 Until: 19-02-2018 06:00 warning for: Flood Level: Yellow info button

Although rather usual in this region, locally or potentially dangerous phenomena are expected. (such as local winds, summer thunderstorms, rising streams or high waves) Be aware and pay attention to the latest weather updates, especially if you carry out activities exposed to weather or close to a stream or shoreline. 


Meteo18 Weather Cam more information Meteo18 Weather Cam


Thunder radar more information blitzortung!


Rain radar more information rain snow radar


Visit our other weather sites:

Template documentation
and downloads

And another site



Weather Underground History page Text

Daily Summary for January 29, 2017 Units:  Metric    English   Both
« Previous Day
Next Day »
Daily Weekly Monthly Yearly Custom
  High: Low: Average:
Temperature: -17.8 °C -18.1 °C -15.4 °C
Dew Point: -17.8 °C -18.3 °C -16.1 °C
Humidity: Humidity % 79 % 92 %
Wind Speed: 0 km/h 0 km/h 2.7 km/h
Wind Gust: 0 km/h - -
Wind:- - South
Pressure: 0 hPa 34496.6 hPa -
Precipitation: 7.62 mm    
Historical Graphs
 
 
Tabular Data for January 29, 2017
Time Temperature Dew Point Pressure Wind Wind Speed Wind Gust Humidity Rainfall Rate (Hourly)
-17.8 °C -17.8 °C 0 hPa Calm     Humidity % 0 mm
00:02 -18 °C -18.2 °C 34601.5 hPa Calm   2.6 km/h 97 % 0 mm
00:07 -18.1 °C -18.3 °C 34601.5 hPa Calm   2.6 km/h 97 % 0 mm
00:12 -18.1 °C -18.3 °C 34601.5 hPa Calm   2.6 km/h 97 % 0 mm
00:17 -18.1 °C -18.3 °C 34601.5 hPa Calm     97 % 0 mm
00:22 -17.9 °C -18.2 °C 34601.5 hPa Calm     97 % 0 mm
00:32 -17.9 °C -18.1 °C 34601.5 hPa Calm     97 % 0 mm
00:37 -17.9 °C -18.2 °C 34601.5 hPa Calm     97 % 0 mm
00:42 -18 °C -18.2 °C 34601.5 hPa Calm     97 % 0 mm
00:52 -18 °C -18.2 °C 34601.5 hPa Calm     97 % 0 mm
00:57 -17.9 °C -18.1 °C 34601.5 hPa Calm     97 % 0 mm
01:02 -17.9 °C -18.2 °C 34601.5 hPa Calm     97 % 0 mm
01:12 -17.9 °C -18.1 °C 34601.5 hPa Calm     97 % 0 mm
01:17 -17.9 °C -18.1 °C 34601.5 hPa Calm     97 % 0 mm
01:22 -17.7 °C -17.9 °C 34591.4 hPa Calm     98 % 0 mm
01:27 -17.7 °C -17.8 °C 34591.4 hPa Calm     98 % 0 mm
01:32 -17.6 °C -17.7 °C 34591.4 hPa Calm     98 % 0 mm
01:37 -17.6 °C -17.7 °C 34591.4 hPa Calm     98 % 0 mm
01:42 -17.6 °C -17.7 °C 34591.4 hPa Calm     98 % 0 mm
01:47 -17.6 °C -17.8 °C 34591.4 hPa Calm     98 % 0 mm
01:52 -17.6 °C -17.8 °C 34591.4 hPa Calm     98 % 0 mm
01:57 -17.6 °C -17.8 °C 34591.4 hPa Calm     98 % 0 mm
02:02 -17.6 °C -17.8 °C 34591.4 hPa Calm     98 % 0 mm
02:12 -17.6 °C -17.8 °C 34591.4 hPa Calm     98 % 0 mm
02:17 -17.6 °C -17.8 °C 34591.4 hPa Calm     98 % 0 mm
02:22 -17.6 °C -17.8 °C 34591.4 hPa Calm     98 % 0 mm
02:27 -17.6 °C -17.8 °C 34591.4 hPa Calm     98 % 0 mm
02:32 -17.6 °C -17.8 °C 34591.4 hPa Calm     97 % 0 mm
02:37 -17.6 °C -17.8 °C 34591.4 hPa Calm     98 % 0 mm
02:42 -17.6 °C -17.7 °C 34591.4 hPa Calm     98 % 0 mm
02:47 -17.6 °C -17.7 °C 34591.4 hPa Calm     98 % 0 mm
02:52 -17.4 °C -17.6 °C 34591.4 hPa Calm     98 % 0 mm
02:57 -17.6 °C -17.7 °C 34591.4 hPa Calm     98 % 0 mm
03:02 -17.6 °C -17.8 °C 34591.4 hPa Calm     98 % 0 mm
03:12 -17.7 °C -17.9 °C 34591.4 hPa Calm     97 % 0 mm
03:17 -17.7 °C -17.9 °C 34591.4 hPa Calm     97 % 0 mm
03:22 -17.7 °C -17.9 °C 34591.4 hPa Calm     97 % 0 mm
03:27 -17.7 °C -17.9 °C 34591.4 hPa Calm     97 % 0 mm
03:32 -17.6 °C -17.7 °C 34591.4 hPa Calm     98 % 0 mm
03:37 -17.6 °C -17.8 °C 34591.4 hPa Calm     98 % 0 mm
03:47 -17.6 °C -17.7 °C 34591.4 hPa Calm     98 % 0 mm
03:52 -17.3 °C -17.5 °C 34591.4 hPa Calm     98 % 0 mm
03:57 -17.2 °C -17.4 °C 34591.4 hPa Calm   2.6 km/h 98 % 0 mm
04:07 -17.2 °C -17.4 °C 34591.4 hPa Calm   2.6 km/h 98 % 0 mm
04:12 -17.2 °C -17.3 °C 34591.4 hPa Calm   2.6 km/h 98 % 0 mm
04:17 -17.1 °C -17.3 °C 34591.4 hPa Calm   2.6 km/h 98 % 0 mm
04:22 -17.2 °C -17.3 °C 34601.5 hPa Calm   2.6 km/h 98 % 0 mm
04:32 -17.2 °C -17.3 °C 34591.4 hPa Calm   2.6 km/h 98 % 0 mm
04:37 -17 °C -17.2 °C 34591.4 hPa Calm   2.6 km/h 98 % 0 mm
04:42 -16.9 °C -17.1 °C 34591.4 hPa Calm     98 % 0 mm
04:47 -16.9 °C -17.1 °C 34591.4 hPa Calm     98 % 0 mm
04:52 -16.9 °C -17.1 °C 34591.4 hPa Calm     98 % 0 mm
04:57 -16.9 °C -17.1 °C 34591.4 hPa Calm     98 % 0 mm
05:02 -16.9 °C -17.1 °C 34591.4 hPa Calm     98 % 0 mm
05:07 -16.8 °C -17 °C 34591.4 hPa Calm     98 % 0 mm
05:12 -16.7 °C -16.9 °C 34591.4 hPa Calm     98 % 0 mm
05:17 -16.6 °C -16.8 °C 34601.5 hPa Calm     98 % 0 mm
05:22 -16.6 °C -16.8 °C 34601.5 hPa Calm     98 % 7.62 mm
05:27 -16.6 °C -16.7 °C 34601.5 hPa Calm     98 % 7.62 mm
05:32 -16.6 °C -16.7 °C 34601.5 hPa SSW 2.6 km/h 2.6 km/h 98 % 7.62 mm
05:37 -16.6 °C -16.7 °C 34601.5 hPa Calm   2.6 km/h 98 % 7.62 mm
05:42 -16.6 °C -16.7 °C 34601.5 hPa Calm   2.6 km/h 98 % 7.62 mm
05:47 -16.6 °C -16.8 °C 34601.5 hPa Calm   2.6 km/h 98 % 7.62 mm
05:52 -16.6 °C -16.8 °C 34601.5 hPa Calm   2.6 km/h 98 % 7.62 mm
05:57 -16.6 °C -16.8 °C 34601.5 hPa Calm   2.6 km/h 98 % 7.62 mm
06:02 -16.6 °C -16.8 °C 34601.5 hPa Calm     98 % 7.62 mm
06:12 -16.6 °C -16.8 °C 34611.7 hPa Calm     98 % 7.62 mm
06:17 -16.6 °C -16.8 °C 34611.7 hPa Calm     98 % 7.62 mm
06:22 -16.6 °C -16.7 °C 34611.7 hPa Calm   2.6 km/h 98 % 0 mm
06:32 -16.5 °C -16.7 °C 34611.7 hPa Calm   2.6 km/h 98 % 0 mm
06:37 -16.6 °C -16.7 °C 34611.7 hPa Calm     98 % 0 mm
06:42 -16.6 °C -16.7 °C 34611.7 hPa Calm     98 % 0 mm
06:47 -16.6 °C -16.7 °C 34611.7 hPa Calm     98 % 0 mm
06:52 -16.6 °C -16.8 °C 34625.2 hPa Calm     98 % 0 mm
07:02 -16.6 °C -16.8 °C 34625.2 hPa Calm     98 % 0 mm
07:07 -16.6 °C -16.7 °C 34625.2 hPa Calm     98 % 0 mm
07:17 -16.5 °C -16.7 °C 34625.2 hPa Calm     98 % 0 mm
07:22 -16.4 °C -16.6 °C 34625.2 hPa Calm   2.6 km/h 98 % 0 mm
07:27 -16.4 °C -16.6 °C 34625.2 hPa Calm   2.6 km/h 98 % 0 mm
07:32 -16.4 °C -16.6 °C 34635.4 hPa Calm   5.1 km/h 98 % 0 mm
07:42 -16.5 °C -16.7 °C 34635.4 hPa Calm   2.6 km/h 98 % 0 mm
07:47 -16.5 °C -16.7 °C 34635.4 hPa Calm   2.6 km/h 98 % 0 mm
07:52 -16.5 °C -16.7 °C 34635.4 hPa Calm   2.6 km/h 98 % 0 mm
07:57 -16.4 °C -16.6 °C 34635.4 hPa Calm   2.6 km/h 98 % 0 mm
08:02 -16.4 °C -16.6 °C 34635.4 hPa Calm   2.6 km/h 98 % 0 mm
08:07 -16.4 °C -16.6 °C 34635.4 hPa Calm   2.6 km/h 98 % 0 mm
08:12 -16.4 °C -16.6 °C 34635.4 hPa Calm     98 % 0 mm
08:17 -16.4 °C -16.6 °C 34635.4 hPa Calm     98 % 0 mm
08:22 -16.4 °C -16.6 °C 34645.6 hPa Calm     98 % 0 mm
08:32 -16.4 °C -16.6 °C 34645.6 hPa Calm     98 % 0 mm
08:37 -16.4 °C -16.6 °C 34645.6 hPa Calm     98 % 0 mm
08:42 -16.4 °C -16.6 °C 34645.6 hPa Calm     98 % 0 mm
08:47 -16.4 °C -16.6 °C 34645.6 hPa Calm     98 % 0 mm
08:52 -16.4 °C -16.6 °C 34645.6 hPa Calm     98 % 0 mm
08:57 -16.4 °C -16.6 °C 34645.6 hPa Calm     98 % 0 mm
09:02 -16.3 °C -16.5 °C 34645.6 hPa Calm     98 % 0 mm
09:07 -16.3 °C -16.5 °C 34645.6 hPa Calm     98 % 0 mm
09:12 -16.3 °C -16.4 °C 34645.6 hPa Calm     98 % 0 mm
09:17 -16.2 °C -16.4 °C 34645.6 hPa Calm     98 % 0 mm
09:22 -16.1 °C -16.3 °C 34645.6 hPa Calm     98 % 0 mm
09:27 -16.1 °C -16.2 °C 34645.6 hPa Calm     98 % 0 mm
09:32 -16.2 °C -16.3 °C 34645.6 hPa Calm     98 % 0 mm
09:37 -16.2 °C -16.3 °C 34645.6 hPa Calm     98 % 0 mm
09:42 -16.1 °C -16.2 °C 34645.6 hPa Calm     98 % 0 mm
09:47 -16.1 °C -16.2 °C 34645.6 hPa Calm     98 % 0 mm
09:52 -16 °C -16.2 °C 34645.6 hPa Calm     98 % 0 mm
09:57 -16 °C -16.2 °C 34645.6 hPa SSE 2.6 km/h   98 % 0 mm
10:02 -16.1 °C -16.2 °C 34645.6 hPa SE 5.1 km/h 5.1 km/h 98 % 0 mm
10:07 -16.1 °C -16.2 °C 34645.6 hPa Calm   5.1 km/h 98 % 0 mm
10:12 -16.1 °C -16.2 °C 34645.6 hPa SE 2.6 km/h 7.7 km/h 98 % 0 mm
10:17 -16 °C -16.2 °C 34645.6 hPa SE 2.6 km/h 7.7 km/h 98 % 0 mm
10:22 -15.9 °C -16.1 °C 34645.6 hPa SE 2.6 km/h 7.7 km/h 98 % 0 mm
10:32 -15.9 °C -16.1 °C 34645.6 hPa South 2.6 km/h 7.7 km/h 98 % 0 mm
10:37 -15.8 °C -16 °C 34645.6 hPa ESE 2.6 km/h 7.7 km/h 98 % 0 mm
10:42 -15.8 °C -15.9 °C 34645.6 hPa Calm   7.7 km/h 98 % 0 mm
10:47 -15.8 °C -15.9 °C 34645.6 hPa SE 2.6 km/h 7.7 km/h 98 % 0 mm
10:52 -15.7 °C -15.9 °C 34645.6 hPa Calm   5.1 km/h 98 % 0 mm
10:57 -15.7 °C -15.9 °C 34645.6 hPa Calm   5.1 km/h 98 % 0 mm
11:02 -15.7 °C -15.8 °C 34645.6 hPa SE 2.6 km/h 5.1 km/h 98 % 0 mm
11:07 -15.6 °C -15.8 °C 34645.6 hPa SSE 5.1 km/h 5.1 km/h 98 % 0 mm
11:12 -15.6 °C -15.7 °C 34645.6 hPa SE 2.6 km/h 5.1 km/h 98 % 0 mm
11:17 -15.5 °C -15.7 °C 34635.4 hPa SE 5.1 km/h 5.1 km/h 98 % 0 mm
11:22 -15.5 °C -15.7 °C 34635.4 hPa SE 2.6 km/h 7.7 km/h 98 % 0 mm
11:32 -15.3 °C -15.5 °C 34635.4 hPa SSE 2.6 km/h 10.3 km/h 98 % 0 mm
11:37 -15.2 °C -15.4 °C 34635.4 hPa Calm   10.3 km/h 98 % 0 mm
11:42 -15.1 °C -15.3 °C 34635.4 hPa SE 5.1 km/h 10.3 km/h 98 % 0 mm
11:47 -15 °C -15.2 °C 34635.4 hPa SSE 7.7 km/h 10.3 km/h 98 % 0 mm
11:52 -14.9 °C -15.1 °C 34635.4 hPa South 10.3 km/h 10.3 km/h 98 % 0 mm
11:57 -14.8 °C -15 °C 34635.4 hPa South 2.6 km/h 10.3 km/h 98 % 0 mm
12:02 -14.7 °C -14.9 °C 34635.4 hPa SE 2.6 km/h 12.9 km/h 98 % 0 mm
12:07 -14.7 °C -14.8 °C 34625.2 hPa SE 2.6 km/h 12.9 km/h 98 % 0 mm
12:12 -14.6 °C -14.8 °C 34625.2 hPa Calm   12.9 km/h 97 % 0 mm
12:17 -14.6 °C -14.8 °C 34625.2 hPa SSE 2.6 km/h 10.3 km/h 97 % 0 mm
12:22 -14.5 °C -14.7 °C 34625.2 hPa SE 5.1 km/h 10.3 km/h 97 % 0 mm
12:32 -14.4 °C -14.7 °C 34625.2 hPa SW 10.3 km/h 10.3 km/h 96 % 0 mm
12:37 -14.3 °C -14.7 °C 34625.2 hPa SSW 10.3 km/h 15.6 km/h 95 % 0 mm
12:42 -14.2 °C -14.6 °C 34611.7 hPa SSW 10.3 km/h 15.6 km/h 95 % 0 mm
12:47 -14.2 °C -14.8 °C 34611.7 hPa SW 10.3 km/h 23.3 km/h 93 % 0 mm
12:57 -13.9 °C -14.6 °C 34611.7 hPa SW 15.6 km/h 23.3 km/h 92 % 0 mm
13:02 -13.7 °C -14.3 °C 34611.7 hPa South 15.6 km/h 23.3 km/h 92 % 0 mm
13:12 -13.4 °C -14.3 °C 34601.5 hPa SSW 15.6 km/h 23.3 km/h 90 % 0 mm
13:17 -13.3 °C -14.3 °C 34601.5 hPa SW 15.6 km/h 28.5 km/h 89 % 0 mm
13:22 -13.3 °C -14.4 °C 34601.5 hPa SW 7.7 km/h 28.5 km/h 88 % 0 mm
13:27 -13.3 °C -14.4 °C 34601.5 hPa SSW 7.7 km/h 28.5 km/h 88 % 0 mm
13:32 -13.3 °C -14.2 °C 34601.5 hPa SSW 12.9 km/h 25.9 km/h 89 % 0 mm
13:37 -13.2 °C -14.4 °C 34601.5 hPa WSW 18.2 km/h 20.8 km/h 86 % 0 mm
13:42 -13.2 °C -14.2 °C 34591.4 hPa South 5.1 km/h 20.8 km/h 88 % 0 mm
13:47 -13.2 °C -14.4 °C 34591.4 hPa SW 15.6 km/h 25.9 km/h 86 % 0 mm
13:52 -13.1 °C -14.2 °C 34591.4 hPa South 10.3 km/h 25.9 km/h 87 % 0 mm
13:57 -13.1 °C -14.4 °C 34591.4 hPa SW 18.2 km/h 25.9 km/h 85 % 0 mm
14:02 -13.1 °C -14.3 °C 34577.8 hPa SW 15.6 km/h 25.9 km/h 86 % 0 mm
14:12 -12.9 °C -14.1 °C 34577.8 hPa South 7.7 km/h 25.9 km/h 86 % 0 mm
14:17 -13 °C -14.6 °C 34567.7 hPa SSW 15.6 km/h 23.3 km/h 82 % 0 mm
14:22 -13 °C -14.4 °C 34567.7 hPa South 5.1 km/h 23.3 km/h 84 % 0 mm
14:27 -13 °C -14.3 °C 34567.7 hPa SSE 7.7 km/h 23.3 km/h 85 % 0 mm
14:32 -12.9 °C -14.4 °C 34567.7 hPa South 10.3 km/h 23.3 km/h 84 % 0 mm
14:37 -12.9 °C -14.3 °C 34567.7 hPa South 5.1 km/h 15.6 km/h 85 % 0 mm
14:42 -12.9 °C -14.4 °C 34567.7 hPa Calm   15.6 km/h 83 % 0 mm
14:47 -12.9 °C -14.3 °C 34567.7 hPa SSE 10.3 km/h 15.6 km/h 84 % 0 mm
14:52 -12.8 °C -14.7 °C 34554.1 hPa SW 7.7 km/h 20.8 km/h 80 % 0 mm
14:57 -12.7 °C -14.3 °C 34554.1 hPa South 5.1 km/h 20.8 km/h 82 % 0 mm
15:02 -12.7 °C -14.4 °C 34554.1 hPa SSE 12.9 km/h 23.3 km/h 81 % 0 mm
15:12 -12.7 °C -14.3 °C 34554.1 hPa SSE 2.6 km/h 23.3 km/h 82 % 0 mm
15:17 -12.7 °C -14.6 °C 34554.1 hPa SSE 15.6 km/h 20.8 km/h 79 % 0 mm
15:22 -12.7 °C -14.6 °C 34554.1 hPa SW 15.6 km/h 20.8 km/h 79 % 0 mm
15:27 -12.6 °C -14.6 °C 34554.1 hPa SSW 10.3 km/h 23.3 km/h 79 % 0 mm
15:32 -12.6 °C -14.4 °C 34554.1 hPa South 7.7 km/h 23.3 km/h 80 % 0 mm
15:37 -12.6 °C -14.4 °C 34554.1 hPa South 10.3 km/h 25.9 km/h 80 % 0 mm
15:42 -12.6 °C -14.3 °C 34554.1 hPa West 5.1 km/h 25.9 km/h 81 % 0 mm
15:47 -12.7 °C -14.6 °C 34544 hPa SSE 7.7 km/h 25.9 km/h 80 % 0 mm
15:52 -12.8 °C -14.6 °C 34544 hPa SSE 5.1 km/h 25.9 km/h 80 % 0 mm
15:57 -12.8 °C -14.6 °C 34554.1 hPa South 5.1 km/h 23.3 km/h 81 % 0 mm
16:02 -12.8 °C -14.6 °C 34554.1 hPa South 2.6 km/h 23.3 km/h 81 % 0 mm
16:12 -12.9 °C -14.7 °C 34544 hPa South 5.1 km/h 15.6 km/h 80 % 0 mm
16:17 -12.8 °C -14.6 °C 34544 hPa SSW 5.1 km/h 15.6 km/h 81 % 0 mm
16:22 -12.8 °C -14.6 °C 34544 hPa SE 7.7 km/h 15.6 km/h 81 % 0 mm
16:27 -12.8 °C -14.6 °C 34544 hPa SSE 5.1 km/h 15.6 km/h 81 % 0 mm
16:32 -12.8 °C -14.6 °C 34544 hPa South 2.6 km/h 15.6 km/h 80 % 0 mm
16:37 -12.7 °C -14.5 °C 34554.1 hPa South 7.7 km/h 15.6 km/h 80 % 0 mm
16:42 -12.7 °C -14.5 °C 34554.1 hPa SSE 5.1 km/h 12.9 km/h 80 % 0 mm
16:47 -12.7 °C -14.6 °C 34554.1 hPa South 7.7 km/h 12.9 km/h 80 % 0 mm
16:57 -12.9 °C -14.7 °C 34544 hPa SW 7.7 km/h 15.6 km/h 81 % 0 mm
17:02 -13.1 °C -14.8 °C 34544 hPa South 7.7 km/h 15.6 km/h 81 % 0 mm
17:12 -13.2 °C -14.8 °C 34544 hPa South 2.6 km/h 15.6 km/h 82 % 0 mm
17:17 -13.3 °C -14.9 °C 34544 hPa South 2.6 km/h 12.9 km/h 82 % 0 mm
17:22 -13.4 °C -15 °C 34544 hPa South 7.7 km/h 12.9 km/h 82 % 0 mm
17:27 -13.4 °C -15.1 °C 34544 hPa SSE 5.1 km/h 12.9 km/h 82 % 0 mm
17:32 -13.4 °C -15.1 °C 34544 hPa ESE 5.1 km/h 12.9 km/h 82 % 0 mm
17:37 -13.5 °C -15.1 °C 34544 hPa SSE 5.1 km/h 10.3 km/h 82 % 0 mm
17:42 -13.6 °C -15.1 °C 34544 hPa Calm   10.3 km/h 83 % 0 mm
17:47 -13.7 °C -15.2 °C 34533.8 hPa SE 2.6 km/h 10.3 km/h 83 % 0 mm
17:52 -13.7 °C -15.2 °C 34533.8 hPa ESE 2.6 km/h 10.3 km/h 83 % 0 mm
17:57 -13.8 °C -15.3 °C 34544 hPa Calm   10.3 km/h 83 % 0 mm
18:02 -13.9 °C -15.3 °C 34544 hPa Calm   7.7 km/h 84 % 0 mm
18:12 -14.1 °C -15.5 °C 34544 hPa Calm   5.1 km/h 84 % 0 mm
18:17 -14.3 °C -15.6 °C 34544 hPa Calm   5.1 km/h 85 % 0 mm
18:22 -14.4 °C -15.7 °C 34544 hPa SSE 2.6 km/h 5.1 km/h 85 % 0 mm
18:32 -14.7 °C -15.9 °C 34544 hPa SSW 2.6 km/h 2.6 km/h 86 % 0 mm
18:42 -14.9 °C -16 °C 34544 hPa Calm   5.1 km/h 87 % 0 mm
18:52 -14.9 °C -15.9 °C 34544 hPa SSW 2.6 km/h 7.7 km/h 88 % 0 mm
18:57 -14.9 °C -15.9 °C 34544 hPa Calm   7.7 km/h 88 % 0 mm
19:02 -14.9 °C -15.9 °C 34544 hPa Calm   5.1 km/h 88 % 0 mm
19:12 -14.9 °C -15.9 °C 34533.8 hPa Calm   5.1 km/h 88 % 0 mm
19:17 -14.9 °C -15.9 °C 34533.8 hPa Calm   2.6 km/h 88 % 0 mm
19:22 -15 °C -16 °C 34533.8 hPa Calm   2.6 km/h 88 % 0 mm
19:27 -15.1 °C -16 °C 34533.8 hPa SW 2.6 km/h   89 % 0 mm
19:32 -15.1 °C -16 °C 34533.8 hPa South 2.6 km/h   89 % 0 mm
19:42 -15.1 °C -15.9 °C 34544 hPa SSW 2.6 km/h 2.6 km/h 90 % 0 mm
19:47 -14.9 °C -15.8 °C 34533.8 hPa SSW 2.6 km/h 5.1 km/h 90 % 0 mm
19:52 -14.9 °C -15.9 °C 34533.8 hPa South 2.6 km/h 5.1 km/h 89 % 0 mm
19:57 -15 °C -15.9 °C 34533.8 hPa Calm   5.1 km/h 89 % 0 mm
20:02 -15 °C -15.8 °C 34533.8 hPa SSW 2.6 km/h 5.1 km/h 90 % 0 mm
20:12 -14.9 °C -15.9 °C 34533.8 hPa SW 2.6 km/h 7.7 km/h 89 % 0 mm
20:17 -14.9 °C -15.8 °C 34544 hPa SW 7.7 km/h 10.3 km/h 89 % 0 mm
20:22 -14.8 °C -15.8 °C 34533.8 hPa SW 5.1 km/h 12.9 km/h 89 % 0 mm
20:27 -14.8 °C -15.8 °C 34533.8 hPa South 7.7 km/h 12.9 km/h 88 % 0 mm
20:32 -14.9 °C -15.9 °C 34533.8 hPa SSW 5.1 km/h 12.9 km/h 88 % 0 mm
20:37 -14.9 °C -15.9 °C 34533.8 hPa SSW 7.7 km/h 12.9 km/h 88 % 0 mm
20:42 -14.9 °C -15.9 °C 34533.8 hPa SSW 5.1 km/h 10.3 km/h 88 % 0 mm
20:47 -14.9 °C -15.9 °C 34533.8 hPa SSW 2.6 km/h 10.3 km/h 88 % 0 mm
20:52 -14.9 °C -15.9 °C 34533.8 hPa SSW 2.6 km/h 7.7 km/h 88 % 0 mm
20:57 -14.9 °C -15.9 °C 34533.8 hPa Calm   10.3 km/h 88 % 0 mm
21:02 -14.9 °C -15.9 °C 34533.8 hPa Calm   10.3 km/h 88 % 0 mm
21:07 -14.8 °C -15.9 °C 34533.8 hPa SSW 2.6 km/h 7.7 km/h 87 % 0 mm
21:12 -14.8 °C -15.9 °C 34533.8 hPa SSW 2.6 km/h 7.7 km/h 87 % 0 mm
21:17 -14.8 °C -15.9 °C 34533.8 hPa Calm   5.1 km/h 87 % 0 mm
21:22 -14.8 °C -15.9 °C 34533.8 hPa SW 2.6 km/h 5.1 km/h 87 % 0 mm
21:32 -14.8 °C -15.9 °C 34533.8 hPa SSW 2.6 km/h 5.1 km/h 87 % 0 mm
21:37 -14.8 °C -15.9 °C 34533.8 hPa Calm   5.1 km/h 87 % 0 mm
21:42 -14.9 °C -16 °C 34533.8 hPa South 2.6 km/h 5.1 km/h 87 % 0 mm
21:47 -14.9 °C -16 °C 34533.8 hPa Calm   5.1 km/h 87 % 0 mm
21:52 -14.9 °C -16 °C 34533.8 hPa SE 2.6 km/h 5.1 km/h 87 % 0 mm
21:57 -14.9 °C -16.1 °C 34533.8 hPa SE 2.6 km/h 5.1 km/h 87 % 0 mm
22:02 -14.9 °C -15.9 °C 34520.3 hPa Calm   5.1 km/h 88 % 0 mm
22:12 -15.1 °C -16.1 °C 34520.3 hPa SSW 2.6 km/h 5.1 km/h 88 % 0 mm
22:17 -15.2 °C -16.2 °C 34520.3 hPa SSW 5.1 km/h 5.1 km/h 88 % 0 mm
22:22 -15.2 °C -16.1 °C 34520.3 hPa South 5.1 km/h 5.1 km/h 89 % 0 mm
22:27 -15.2 °C -16.2 °C 34520.3 hPa SSW 2.6 km/h 5.1 km/h 88 % 0 mm
22:32 -15.1 °C -16.1 °C 34520.3 hPa SSW 5.1 km/h 5.1 km/h 89 % 0 mm
22:37 -15.1 °C -16.1 °C 34520.3 hPa SSW 2.6 km/h 7.7 km/h 88 % 0 mm
22:42 -15.1 °C -16.1 °C 34520.3 hPa SE 5.1 km/h 10.3 km/h 88 % 0 mm
22:47 -15.1 °C -16.1 °C 34520.3 hPa SSW 5.1 km/h 10.3 km/h 88 % 0 mm
22:52 -15.1 °C -16.1 °C 34520.3 hPa Calm   7.7 km/h 88 % 0 mm
22:57 -15.1 °C -16.1 °C 34520.3 hPa South 2.6 km/h 7.7 km/h 88 % 0 mm
23:02 -14.9 °C -16.1 °C 34520.3 hPa SSW 2.6 km/h 7.7 km/h 87 % 0 mm
23:07 -15 °C -16.1 °C 34520.3 hPa SSW 2.6 km/h 5.1 km/h 87 % 0 mm
23:12 -15.1 °C -16.1 °C 34520.3 hPa Calm   5.1 km/h 88 % 0 mm
23:17 -15.1 °C -16.1 °C 34520.3 hPa South 2.6 km/h 5.1 km/h 88 % 0 mm
23:22 -15.1 °C -16.1 °C 34510.1 hPa Calm   5.1 km/h 88 % 0 mm
23:27 -15.1 °C -16.1 °C 34510.1 hPa SSW 2.6 km/h 7.7 km/h 88 % 0 mm
23:32 -15.2 °C -16.2 °C 34510.1 hPa SSW 2.6 km/h 7.7 km/h 88 % 0 mm
23:37 -15.2 °C -16.2 °C 34510.1 hPa SSE 5.1 km/h 7.7 km/h 89 % 0 mm
23:42 -15.2 °C -16.1 °C 34510.1 hPa Calm   7.7 km/h 89 % 0 mm
23:47 -15.2 °C -16.2 °C 34510.1 hPa SSE 2.6 km/h 5.1 km/h 88 % 0 mm
23:52 -15.2 °C -16.2 °C 34496.6 hPa SE 2.6 km/h 7.7 km/h 88 % 0 mm
23:57 -15.2 °C -16.2 °C 34496.6 hPa Calm   7.7 km/h 88 % 0 mm
Meteo18
Compliments of Weather Underground - 4 mb

Script developed by  Jim McMurry - jmcmurry@mwt.net Adapted for the template by  Wim van der Kuil - Leuven-Template.eu

You find our weather info also at:

European Weather Network

Weather Underground

Equipment we use:

Weather-station
Davis Vue

Weather-program
Meteobridge

Weather-server
Raspberry PI 2 B+

Provider
1 and 1

Davis Vue

Meteobridge

Raspberry PI 2 B+

1 and 1